Time;durP1;ratioP1;P1;durP2;ratioP2;P2;SDS_P1;SDS_P2;PMS_P1;PMS_P2;Temp;Humidity;BMP_temperature;BMP_pressure;BME280_temperature;BME280_humidity;BME280_pressure;Samples;Min_cycle;Max_cycle;Signal;HPM_P1;HPM_P2
2023/05/24 00:01:03;;;;;;;6.97;2.67;;;;;;;;;;4995566;28;20233;-49
2023/05/24 00:03:33;;;;;;;4.20;2.60;;;;;;;;;;4995796;28;20194;-49
2023/05/24 00:06:01;;;;;;;4.65;2.70;;;;;;;;;;4996080;28;20206;-49
2023/05/24 00:08:28;;;;;;;4.82;2.78;;;;;;;;;;4995889;28;20230;-49
2023/05/24 00:10:55;;;;;;;4.00;2.75;;;;;;;;;;4995841;28;20202;-48
2023/05/24 00:13:22;;;;;;;4.05;2.47;;;;;;;;;;4995579;28;20252;-50
2023/05/24 00:15:49;;;;;;;3.30;2.67;;;;;;;;;;4995881;28;20261;-52
2023/05/24 00:18:17;;;;;;;4.75;2.47;;;;;;;;;;4995503;28;20206;-48
2023/05/24 00:20:44;;;;;;;7.45;3.10;;;;;;;;;;4995525;28;20562;-49
2023/05/24 00:23:12;;;;;;;4.00;2.88;;;;;;;;;;4995612;28;20198;-50
2023/05/24 00:25:39;;;;;;;3.85;2.50;;;;;;;;;;4995355;28;20205;-48
2023/05/24 00:28:06;;;;;;;2.90;2.15;;;;;;;;;;4995303;28;20241;-49
2023/05/24 00:30:33;;;;;;;3.90;2.88;;;;;;;;;;4995557;28;20209;-49
2023/05/24 00:33:01;;;;;;;3.58;2.50;;;;;;;;;;4995370;28;20206;-51
2023/05/24 00:35:29;;;;;;;3.30;2.40;;;;;;;;;;4995389;28;20206;-51
2023/05/24 00:37:56;;;;;;;4.40;2.55;;;;;;;;;;4978095;28;20217;-53
2023/05/24 00:40:23;;;;;;;3.35;2.33;;;;;;;;;;4960913;28;20289;-49
2023/05/24 00:42:51;;;;;;;3.83;2.70;;;;;;;;;;4995073;28;20213;-50
2023/05/24 00:45:18;;;;;;;4.78;2.63;;;;;;;;;;4977669;28;20206;-49
2023/05/24 00:47:46;;;;;;;7.93;2.83;;;;;;;;;;4994958;28;20699;-52
2023/05/24 00:50:15;;;;;;;2.45;1.90;;;;;;;;;;4995080;28;20198;-49
2023/05/24 00:52:43;;;;;;;4.75;2.85;;;;;;;;;;4978414;28;20202;-49
2023/05/24 00:55:11;;;;;;;3.60;2.20;;;;;;;;;;4961672;28;20230;-50
2023/05/24 00:57:38;;;;;;;3.42;2.47;;;;;;;;;;4978011;28;20198;-48
2023/05/24 01:00:06;;;;;;;3.83;2.83;;;;;;;;;;4995019;28;20248;-49
2023/05/24 01:02:34;;;;;;;4.82;2.60;;;;;;;;;;4994702;28;20202;-50
2023/05/24 01:05:01;;;;;;;4.65;2.63;;;;;;;;;;4994802;28;20202;-49
2023/05/24 01:07:36;;;;;;;4.85;2.38;;;;;;;;;;4994438;28;20694;-51
2023/05/24 01:10:29;;;;;;;4.30;2.22;;;;;;;;;;4994614;28;20218;-51
2023/05/24 01:13:25;;;;;;;4.13;2.45;;;;;;;;;;4994411;28;20221;-49
2023/05/24 01:16:21;;;;;;;3.40;2.63;;;;;;;;;;4993374;28;20655;-50
2023/05/24 01:18:56;;;;;;;4.75;2.55;;;;;;;;;;4984655;28;20273;-50
2023/05/24 01:21:37;;;;;;;3.05;2.42;;;;;;;;;;4994589;28;20607;-49
2023/05/24 01:24:24;;;;;;;4.60;2.90;;;;;;;;;;4994435;28;20655;-49
2023/05/24 01:27:05;;;;;;;5.93;3.08;;;;;;;;;;4977209;28;20542;-50
2023/05/24 01:29:34;;;;;;;5.75;3.10;;;;;;;;;;4993223;28;20202;-49
2023/05/24 01:32:02;;;;;;;5.40;2.80;;;;;;;;;;4993260;28;20212;-48
2023/05/24 01:34:29;;;;;;;4.53;2.60;;;;;;;;;;4994191;28;20658;-49
2023/05/24 01:36:56;;;;;;;5.25;3.00;;;;;;;;;;4994281;28;20216;-49
2023/05/24 01:39:26;;;;;;;6.07;3.00;;;;;;;;;;4994189;28;20268;-50
2023/05/24 01:42:15;;;;;;;3.70;2.90;;;;;;;;;;4994635;28;20288;-49
2023/05/24 01:45:08;;;;;;;4.05;3.05;;;;;;;;;;4994039;28;20655;-50
2023/05/24 01:48:17;;;;;;;3.67;2.88;;;;;;;;;;4993883;28;20222;-49
2023/05/24 01:50:48;;;;;;;4.95;3.00;;;;;;;;;;4993134;28;20575;-50
2023/05/24 01:53:18;;;;;;;4.90;2.78;;;;;;;;;;4993791;28;20206;-49
2023/05/24 01:55:49;;;;;;;5.22;3.35;;;;;;;;;;4981795;28;20288;-49
2023/05/24 01:58:18;;;;;;;5.35;2.85;;;;;;;;;;4976526;28;20206;-50
2023/05/24 02:00:46;;;;;;;4.55;2.67;;;;;;;;;;4976469;28;20706;-49
2023/05/24 02:03:14;;;;;;;4.32;2.72;;;;;;;;;;4976289;28;20217;-49
2023/05/24 02:05:43;;;;;;;3.35;2.80;;;;;;;;;;4976480;28;20202;-49
2023/05/24 02:08:11;;;;;;;4.90;2.90;;;;;;;;;;4993826;28;20233;-49
2023/05/24 02:10:39;;;;;;;4.85;2.92;;;;;;;;;;4993521;28;20210;-49
2023/05/24 02:13:07;;;;;;;7.53;3.00;;;;;;;;;;4993853;28;20340;-51
2023/05/24 02:15:35;;;;;;;3.95;2.78;;;;;;;;;;4976525;28;20206;-48
2023/05/24 02:18:02;;;;;;;5.68;3.00;;;;;;;;;;4993512;28;20264;-49
2023/05/24 02:20:30;;;;;;;3.65;2.55;;;;;;;;;;4993525;28;20214;-49
2023/05/24 02:22:58;;;;;;;4.50;2.78;;;;;;;;;;4976424;28;20293;-49
2023/05/24 02:25:26;;;;;;;3.97;2.55;;;;;;;;;;4995438;28;20217;-51
2023/05/24 02:27:53;;;;;;;3.15;2.53;;;;;;;;;;4980219;28;20564;-50
2023/05/24 02:30:20;;;;;;;4.03;2.55;;;;;;;;;;4997280;28;20214;-49
2023/05/24 02:32:47;;;;;;;4.63;2.92;;;;;;;;;;4997550;28;20297;-49
2023/05/24 02:35:15;;;;;;;4.93;2.97;;;;;;;;;;4997729;28;20206;-50
2023/05/24 02:37:42;;;;;;;3.78;2.83;;;;;;;;;;4979817;28;20253;-49
2023/05/24 02:40:10;;;;;;;9.95;2.83;;;;;;;;;;4980301;28;20209;-50
2023/05/24 02:42:37;;;;;;;2.92;2.47;;;;;;;;;;4997166;28;20292;-49
2023/05/24 02:45:06;;;;;;;3.65;2.67;;;;;;;;;;4979922;28;20213;-52
2023/05/24 02:47:33;;;;;;;4.63;2.83;;;;;;;;;;4980110;28;20282;-51
2023/05/24 02:50:00;;;;;;;4.57;2.83;;;;;;;;;;4996874;28;20206;-50
2023/05/24 02:52:27;;;;;;;3.47;2.70;;;;;;;;;;4963998;28;20206;-49
2023/05/24 02:54:55;;;;;;;3.47;2.63;;;;;;;;;;4997501;28;20241;-50
2023/05/24 02:57:22;;;;;;;4.07;3.25;;;;;;;;;;4980126;28;20202;-50
2023/05/24 02:59:50;;;;;;;5.25;2.67;;;;;;;;;;4997090;28;20570;-48
2023/05/24 03:02:18;;;;;;;4.63;2.97;;;;;;;;;;4996934;28;20206;-49
2023/05/24 03:04:45;;;;;;;3.33;2.80;;;;;;;;;;4979566;28;20213;-49
2023/05/24 03:07:13;;;;;;;4.47;2.75;;;;;;;;;;4979438;28;20682;-50
2023/05/24 03:09:41;;;;;;;7.03;2.90;;;;;;;;;;4979725;28;20229;-50
2023/05/24 03:12:08;;;;;;;4.00;2.90;;;;;;;;;;4979662;28;20206;-49
2023/05/24 03:14:37;;;;;;;4.55;2.72;;;;;;;;;;4996750;28;20678;-49
2023/05/24 03:17:04;;;;;;;10.45;2.92;;;;;;;;;;4979684;28;20198;-50
2023/05/24 03:19:34;;;;;;;6.25;3.15;;;;;;;;;;4979348;28;20210;-50
2023/05/24 03:22:00;;;;;;;4.32;2.75;;;;;;;;;;4996613;28;20216;-49
2023/05/24 03:24:28;;;;;;;5.60;2.83;;;;;;;;;;4979523;28;20216;-49
2023/05/24 03:26:56;;;;;;;3.63;2.50;;;;;;;;;;4979356;28;20201;-51
2023/05/24 03:29:23;;;;;;;4.22;2.80;;;;;;;;;;4979383;28;20568;-51
2023/05/24 03:31:52;;;;;;;4.63;2.70;;;;;;;;;;4981822;28;20209;-50
2023/05/24 03:34:19;;;;;;;3.50;2.65;;;;;;;;;;4999587;28;20205;-49
2023/05/24 03:36:46;;;;;;;3.45;2.63;;;;;;;;;;5002236;28;20230;-49
2023/05/24 03:39:14;;;;;;;2.75;2.45;;;;;;;;;;4985781;28;21278;-50
2023/05/24 03:41:58;;;;;;;3.45;2.78;;;;;;;;;;5018187;28;20200;-50
2023/05/24 03:44:26;;;;;;;3.72;2.45;;;;;;;;;;4986792;28;20205;-50
2023/05/24 03:46:53;;;;;;;3.83;2.70;;;;;;;;;;4996433;28;20209;-51
2023/05/24 03:49:20;;;;;;;3.90;2.90;;;;;;;;;;4995527;28;20270;-55
2023/05/24 03:51:48;;;;;;;5.15;2.80;;;;;;;;;;4976772;28;20211;-50
2023/05/24 03:54:17;;;;;;;3.67;2.70;;;;;;;;;;4991034;28;20598;-55
2023/05/24 03:56:45;;;;;;;3.97;2.67;;;;;;;;;;4978750;28;20281;-52
2023/05/24 03:59:13;;;;;;;3.65;2.67;;;;;;;;;;4996269;28;20204;-56
2023/05/24 04:01:40;;;;;;;3.75;2.55;;;;;;;;;;4978689;28;20230;-51
2023/05/24 04:04:07;;;;;;;8.57;2.42;;;;;;;;;;4977832;28;20202;-49
2023/05/24 04:06:35;;;;;;;4.28;2.50;;;;;;;;;;4973973;28;20206;-44
2023/05/24 04:09:06;;;;;;;6.80;3.10;;;;;;;;;;4993882;28;20583;-44
2023/05/24 04:11:33;;;;;;;3.97;2.70;;;;;;;;;;5004730;28;20207;-48
2023/05/24 04:14:00;;;;;;;3.00;2.30;;;;;;;;;;4965648;28;20234;-45
2023/05/24 04:16:32;;;;;;;4.32;2.80;;;;;;;;;;4994229;28;20226;-47
2023/05/24 04:19:03;;;;;;;3.35;2.78;;;;;;;;;;4989172;28;20247;-45
2023/05/24 04:21:32;;;;;;;3.95;2.60;;;;;;;;;;4994946;28;20222;-46
2023/05/24 04:24:00;;;;;;;4.65;2.50;;;;;;;;;;4977178;28;20264;-44
2023/05/24 04:26:28;;;;;;;3.75;2.40;;;;;;;;;;4977166;28;20585;-45
2023/05/24 04:28:56;;;;;;;3.67;2.50;;;;;;;;;;4974155;28;20245;-44
2023/05/24 04:31:24;;;;;;;3.63;2.53;;;;;;;;;;4974497;28;20233;-45
2023/05/24 04:33:52;;;;;;;3.67;2.63;;;;;;;;;;4975605;28;20262;-45
2023/05/24 04:36:21;;;;;;;3.90;2.40;;;;;;;;;;4974669;28;20635;-44
2023/05/24 04:38:49;;;;;;;3.15;2.22;;;;;;;;;;4974960;28;20544;-44
2023/05/24 04:41:16;;;;;;;4.90;2.38;;;;;;;;;;4974840;28;20704;-47
2023/05/24 04:43:43;;;;;;;3.95;3.20;;;;;;;;;;4974798;28;20229;-45
2023/05/24 04:46:11;;;;;;;3.55;2.45;;;;;;;;;;4975328;28;20235;-46
2023/05/24 04:48:39;;;;;;;3.25;2.17;;;;;;;;;;4974863;28;20234;-46
2023/05/24 04:51:06;;;;;;;3.67;2.50;;;;;;;;;;4984901;28;20214;-44
2023/05/24 04:53:33;;;;;;;3.20;2.25;;;;;;;;;;4978577;28;20230;-46
2023/05/24 04:56:00;;;;;;;7.78;2.33;;;;;;;;;;4981916;28;20577;-47
2023/05/24 04:58:27;;;;;;;4.45;1.98;;;;;;;;;;4975163;28;20297;-45
2023/05/24 05:00:54;;;;;;;4.70;2.72;;;;;;;;;;4975256;28;20224;-45
2023/05/24 05:03:22;;;;;;;3.10;2.17;;;;;;;;;;4991001;28;20226;-45
2023/05/24 05:05:49;;;;;;;3.60;2.35;;;;;;;;;;4993961;28;20288;-46
2023/05/24 05:08:16;;;;;;;3.55;2.47;;;;;;;;;;4993587;28;20237;-46
2023/05/24 05:10:43;;;;;;;3.15;2.28;;;;;;;;;;4993299;28;20297;-47
2023/05/24 05:13:11;;;;;;;4.03;2.65;;;;;;;;;;4997276;28;20213;-45
2023/05/24 05:15:38;;;;;;;7.57;2.42;;;;;;;;;;4993661;28;20269;-45
2023/05/24 05:18:09;;;;;;;3.33;2.30;;;;;;;;;;4993562;28;20674;-45
2023/05/24 05:20:36;;;;;;;3.53;2.40;;;;;;;;;;4994842;28;20198;-45
2023/05/24 05:23:03;;;;;;;3.55;2.20;;;;;;;;;;4986240;28;20202;-47
2023/05/24 05:25:30;;;;;;;4.40;2.20;;;;;;;;;;4992253;28;20663;-46
2023/05/24 05:27:58;;;;;;;3.15;2.25;;;;;;;;;;4994372;28;20205;-47
2023/05/24 05:30:24;;;;;;;2.67;2.05;;;;;;;;;;4994219;28;20249;-47
2023/05/24 05:32:52;;;;;;;5.00;2.05;;;;;;;;;;4993498;28;20667;-46
2023/05/24 05:35:19;;;;;;;2.80;2.20;;;;;;;;;;5001665;28;20193;-48
2023/05/24 05:37:46;;;;;;;3.45;2.20;;;;;;;;;;5004440;28;20197;-47
2023/05/24 05:40:13;;;;;;;3.28;2.20;;;;;;;;;;5002602;28;20667;-47
2023/05/24 05:42:41;;;;;;;3.63;2.17;;;;;;;;;;5002434;28;20276;-48
2023/05/24 05:45:08;;;;;;;3.53;1.98;;;;;;;;;;5003969;28;20208;-47
2023/05/24 05:47:35;;;;;;;6.75;1.75;;;;;;;;;;4999797;28;20217;-47
2023/05/24 05:50:03;;;;;;;2.75;1.92;;;;;;;;;;5002295;28;20217;-48
2023/05/24 05:52:30;;;;;;;4.65;2.08;;;;;;;;;;5002755;28;20197;-49
2023/05/24 05:54:59;;;;;;;4.25;2.33;;;;;;;;;;5001253;28;20229;-47
2023/05/24 05:57:26;;;;;;;3.08;1.90;;;;;;;;;;5002577;28;20244;-48
2023/05/24 05:59:53;;;;;;;3.35;2.20;;;;;;;;;;5003023;28;20321;-47
2023/05/24 06:02:23;;;;;;;3.08;2.13;;;;;;;;;;4999553;28;20542;-48
2023/05/24 06:04:50;;;;;;;4.13;2.03;;;;;;;;;;5001959;28;20193;-48
2023/05/24 06:07:18;;;;;;;3.90;1.95;;;;;;;;;;5000879;28;20661;-48
2023/05/24 06:09:46;;;;;;;2.60;1.85;;;;;;;;;;5003707;28;20221;-48
2023/05/24 06:12:13;;;;;;;2.05;1.60;;;;;;;;;;5000918;28;20206;-49
2023/05/24 06:14:40;;;;;;;3.35;1.70;;;;;;;;;;5003275;28;20205;-49
2023/05/24 06:17:08;;;;;;;2.30;1.83;;;;;;;;;;5001413;28;20205;-48
2023/05/24 06:19:35;;;;;;;2.25;1.70;;;;;;;;;;4999175;28;20563;-50
2023/05/24 06:22:03;;;;;;;2.25;1.48;;;;;;;;;;5002237;28;20228;-48
2023/05/24 06:24:33;;;;;;;2.47;1.70;;;;;;;;;;5003334;28;20750;-48
2023/05/24 06:27:01;;;;;;;3.28;1.90;;;;;;;;;;5001009;28;20551;-47
2023/05/24 06:29:31;;;;;;;3.53;1.90;;;;;;;;;;4985200;28;20218;-51
2023/05/24 06:31:58;;;;;;;5.07;1.75;;;;;;;;;;5002929;28;20221;-49
2023/05/24 06:34:26;;;;;;;2.45;1.52;;;;;;;;;;5003250;28;20595;-48
2023/05/24 06:36:53;;;;;;;3.67;1.60;;;;;;;;;;5000671;28;20195;-49
2023/05/24 06:39:20;;;;;;;2.22;1.80;;;;;;;;;;5002834;28;20205;-49
2023/05/24 06:41:50;;;;;;;4.10;1.65;;;;;;;;;;5001383;28;20264;-50
2023/05/24 06:44:29;;;;;;;2.25;1.40;;;;;;;;;;5014150;28;20245;-49
2023/05/24 06:46:57;;;;;;;2.35;1.88;;;;;;;;;;4930826;28;20226;-49
2023/05/24 06:49:24;;;;;;;3.17;1.45;;;;;;;;;;4992046;28;20234;-47
2023/05/24 06:51:51;;;;;;;3.17;1.50;;;;;;;;;;4992122;28;20281;-49
2023/05/24 06:54:18;;;;;;;2.28;1.67;;;;;;;;;;4992323;28;20690;-48
2023/05/24 06:56:46;;;;;;;4.22;1.35;;;;;;;;;;4991987;28;20250;-49
2023/05/24 06:59:13;;;;;;;3.95;1.90;;;;;;;;;;4991773;28;20228;-49
2023/05/24 07:01:41;;;;;;;2.60;1.73;;;;;;;;;;4991669;28;20218;-49
2023/05/24 07:04:09;;;;;;;3.40;1.50;;;;;;;;;;4989840;28;20221;-48
2023/05/24 07:06:36;;;;;;;3.50;2.08;;;;;;;;;;4992444;28;20226;-48
2023/05/24 07:09:04;;;;;;;3.63;1.60;;;;;;;;;;4985232;28;20246;-50
2023/05/24 07:11:31;;;;;;;3.40;1.80;;;;;;;;;;4996407;28;20240;-52
2023/05/24 07:13:58;;;;;;;2.13;1.60;;;;;;;;;;5000724;28;20243;-50
2023/05/24 07:16:25;;;;;;;2.00;1.65;;;;;;;;;;5003725;28;20213;-47
2023/05/24 07:18:54;;;;;;;2.88;1.58;;;;;;;;;;5000285;28;20260;-51
2023/05/24 07:21:21;;;;;;;1.95;1.48;;;;;;;;;;4994615;28;20230;-50
2023/05/24 07:23:49;;;;;;;3.35;1.80;;;;;;;;;;4993905;28;20229;-51
2023/05/24 07:26:17;;;;;;;2.33;1.50;;;;;;;;;;4993648;28;20567;-49
2023/05/24 07:28:44;;;;;;;2.75;1.48;;;;;;;;;;4994174;28;20241;-50
2023/05/24 07:31:12;;;;;;;2.88;1.80;;;;;;;;;;4994870;28;20280;-49
2023/05/24 07:33:39;;;;;;;2.33;1.52;;;;;;;;;;4994638;28;20781;-50
2023/05/24 07:36:07;;;;;;;1.55;1.40;;;;;;;;;;4995353;28;20585;-52
2023/05/24 07:38:35;;;;;;;3.17;1.73;;;;;;;;;;4994891;28;20797;-51
2023/05/24 07:41:03;;;;;;;2.63;1.40;;;;;;;;;;4995169;28;20226;-49
2023/05/24 07:43:30;;;;;;;2.20;1.38;;;;;;;;;;4995006;28;20230;-49
2023/05/24 07:45:58;;;;;;;2.05;1.30;;;;;;;;;;4995248;28;20228;-47
2023/05/24 07:48:25;;;;;;;3.10;1.63;;;;;;;;;;4997429;28;20308;-49
2023/05/24 07:50:53;;;;;;;2.65;1.50;;;;;;;;;;5013479;28;20582;-49
2023/05/24 07:53:21;;;;;;;1.55;1.08;;;;;;;;;;5002960;28;20225;-49
2023/05/24 07:55:49;;;;;;;2.88;1.55;;;;;;;;;;4994472;28;20237;-48
2023/05/24 07:58:16;;;;;;;2.33;1.40;;;;;;;;;;4977334;28;20250;-50
2023/05/24 08:00:44;;;;;;;2.40;1.45;;;;;;;;;;4994581;28;20218;-47
2023/05/24 08:03:13;;;;;;;2.85;1.52;;;;;;;;;;4993009;28;20226;-48
2023/05/24 08:05:40;;;;;;;2.67;1.73;;;;;;;;;;5013268;28;20303;-50
2023/05/24 08:08:08;;;;;;;2.58;1.60;;;;;;;;;;5005401;28;20231;-48
2023/05/24 08:10:36;;;;;;;1.63;1.30;;;;;;;;;;4992826;28;20241;-47
2023/05/24 08:13:04;;;;;;;2.40;1.67;;;;;;;;;;4992269;28;20280;-49
2023/05/24 08:15:31;;;;;;;3.03;1.55;;;;;;;;;;4992736;28;20577;-47
2023/05/24 08:17:58;;;;;;;11.70;8.38;;;;;;;;;;4993671;28;20246;-48
2023/05/24 08:20:26;;;;;;;8.95;6.40;;;;;;;;;;4993802;28;20229;-48
2023/05/24 08:22:53;;;;;;;3.47;1.65;;;;;;;;;;4992808;28;20225;-50
2023/05/24 08:25:21;;;;;;;2.13;1.65;;;;;;;;;;4993194;28;20675;-47
2023/05/24 08:27:48;;;;;;;2.47;1.90;;;;;;;;;;4993739;28;20222;-50
2023/05/24 08:30:16;;;;;;;2.70;1.30;;;;;;;;;;4994075;28;20253;-49
2023/05/24 08:32:43;;;;;;;3.78;3.10;;;;;;;;;;4994042;28;20737;-49
2023/05/24 08:35:11;;;;;;;2.33;1.80;;;;;;;;;;4989919;28;20221;-47
2023/05/24 08:37:44;;;;;;;5.07;2.65;;;;;;;;;;5000196;28;20288;-48
2023/05/24 08:40:11;;;;;;;1.98;1.50;;;;;;;;;;4990579;28;20219;-47
2023/05/24 08:42:40;;;;;;;6.28;4.80;;;;;;;;;;4986312;28;20222;-49
2023/05/24 08:45:10;;;;;;;3.05;2.40;;;;;;;;;;4992435;28;20256;-50
2023/05/24 08:47:38;;;;;;;6.07;4.10;;;;;;;;;;4976321;28;20222;-48
2023/05/24 08:50:06;;;;;;;6.18;2.80;;;;;;;;;;4993296;28;20234;-49
2023/05/24 08:52:33;;;;;;;3.38;1.75;;;;;;;;;;4993224;28;20588;-47
2023/05/24 08:55:03;;;;;;;4.88;3.10;;;;;;;;;;4993540;28;20601;-49
2023/05/24 08:57:33;;;;;;;7.30;3.75;;;;;;;;;;4990963;28;20218;-49
2023/05/24 09:00:00;;;;;;;1.90;1.40;;;;;;;;;;4992453;28;20221;-49
2023/05/24 09:02:29;;;;;;;2.97;2.10;;;;;;;;;;4991982;28;20231;-49
2023/05/24 09:04:57;;;;;;;4.93;2.20;;;;;;;;;;4981563;28;20236;-49
2023/05/24 09:07:25;;;;;;;4.80;2.53;;;;;;;;;;5001826;28;20214;-48
2023/05/24 09:10:05;;;;;;;6.28;3.95;;;;;;;;;;5003114;28;20233;-48
2023/05/24 09:12:35;;;;;;;4.30;2.13;;;;;;;;;;5001442;28;20229;-50
2023/05/24 09:15:07;;;;;;;3.55;2.60;;;;;;;;;;4984521;28;20707;-51
2023/05/24 09:17:35;;;;;;;5.85;4.05;;;;;;;;;;5002204;28;20228;-48
2023/05/24 09:20:08;;;;;;;19.10;12.48;;;;;;;;;;4997723;28;20223;-49
2023/05/24 09:22:37;;;;;;;7.25;4.72;;;;;;;;;;5002346;28;20579;-49
2023/05/24 09:25:09;;;;;;;16.00;9.52;;;;;;;;;;5000159;28;20229;-48
2023/05/24 09:27:37;;;;;;;16.02;9.93;;;;;;;;;;5001336;28;20375;-48
2023/05/24 09:30:09;;;;;;;9.73;6.25;;;;;;;;;;4999727;28;20605;-49
2023/05/24 09:32:37;;;;;;;4.47;2.90;;;;;;;;;;5001428;28;20224;-50
2023/05/24 09:35:08;;;;;;;5.00;2.85;;;;;;;;;;4998984;28;20233;-48
2023/05/24 09:37:37;;;;;;;2.78;1.65;;;;;;;;;;4988641;28;20230;-47
2023/05/24 09:40:07;;;;;;;2.60;1.80;;;;;;;;;;4982624;28;20237;-48
2023/05/24 09:42:34;;;;;;;2.92;2.03;;;;;;;;;;4988349;28;20234;-50
2023/05/24 09:45:06;;;;;;;5.38;2.25;;;;;;;;;;4991177;28;20226;-50
2023/05/24 09:47:34;;;;;;;3.40;1.65;;;;;;;;;;4988511;28;20225;-49
2023/05/24 09:50:04;;;;;;;4.75;1.88;;;;;;;;;;4993025;28;20226;-48
2023/05/24 09:52:31;;;;;;;2.05;1.30;;;;;;;;;;4989132;28;20312;-52
2023/05/24 09:55:14;;;;;;;4.03;2.55;;;;;;;;;;4985432;28;20229;-48
2023/05/24 09:57:50;;;;;;;10.50;6.18;;;;;;;;;;4987357;28;20333;-58
2023/05/24 10:00:22;;;;;;;5.68;3.13;;;;;;;;;;5000140;28;20224;-55
2023/05/24 10:03:03;;;;;;;16.67;8.50;;;;;;;;;;4991060;28;20249;-57
2023/05/24 10:05:30;;;;;;;14.50;8.30;;;;;;;;;;4978214;28;21015;-57
2023/05/24 10:07:58;;;;;;;43.00;22.15;;;;;;;;;;4990799;28;20287;-56
2023/05/24 10:10:30;;;;;;;93.45;44.75;;;;;;;;;;4992299;28;20283;-58
2023/05/24 10:12:58;;;;;;;27.08;13.02;;;;;;;;;;4992452;28;20264;-56
2023/05/24 10:15:26;;;;;;;6.10;4.38;;;;;;;;;;4992418;28;20237;-57
2023/05/24 10:17:54;;;;;;;8.57;5.70;;;;;;;;;;5003650;28;20222;-56
2023/05/24 10:20:23;;;;;;;4.75;3.25;;;;;;;;;;5006317;28;20225;-54
2023/05/24 10:23:02;;;;;;;6.60;4.60;;;;;;;;;;4981487;28;20240;-57
2023/05/24 10:25:32;;;;;;;6.53;2.72;;;;;;;;;;4974697;28;20683;-54
2023/05/24 10:28:08;;;;;;;2.72;1.90;;;;;;;;;;5002773;28;20785;-56
2023/05/24 10:30:39;;;;;;;8.05;4.10;;;;;;;;;;4995060;28;20291;-54
2023/05/24 10:33:08;;;;;;;9.45;4.38;;;;;;;;;;4992374;28;20230;-57
2023/05/24 10:35:37;;;;;;;4.28;2.72;;;;;;;;;;4976049;28;20233;-51
2023/05/24 10:38:07;;;;;;;5.40;2.40;;;;;;;;;;4975447;28;20233;-51
2023/05/24 10:40:40;;;;;;;3.42;2.00;;;;;;;;;;4975062;28;20222;-53
2023/05/24 10:43:07;;;;;;;2.22;1.50;;;;;;;;;;4991265;28;20312;-53
2023/05/24 10:45:39;;;;;;;10.43;6.70;;;;;;;;;;4999780;28;20225;-50
2023/05/24 10:48:12;;;;;;;13.82;7.10;;;;;;;;;;5005587;28;20221;-51
2023/05/24 10:50:40;;;;;;;31.88;16.23;;;;;;;;;;5004695;28;20230;-53
2023/05/24 10:53:13;;;;;;;23.60;10.55;;;;;;;;;;4999743;28;20218;-51
2023/05/24 10:56:02;;;;;;;52.95;27.38;;;;;;;;;;4996883;28;20585;-51
2023/05/24 10:58:32;;;;;;;22.60;12.20;;;;;;;;;;4999636;28;20254;-53
2023/05/24 11:01:00;;;;;;;13.63;7.43;;;;;;;;;;5005138;28;20793;-52
2023/05/24 11:03:34;;;;;;;6.05;3.47;;;;;;;;;;5002605;28;20252;-51
2023/05/24 11:06:01;;;;;;;8.90;4.75;;;;;;;;;;4999404;28;20229;-51
2023/05/24 11:08:36;;;;;;;2.67;1.55;;;;;;;;;;4999781;28;20241;-47
2023/05/24 11:11:09;;;;;;;3.40;1.80;;;;;;;;;;4995591;28;20240;-47
2023/05/24 11:13:40;;;;;;;5.07;3.47;;;;;;;;;;4998879;28;20232;-50
2023/05/24 11:16:07;;;;;;;13.07;4.75;;;;;;;;;;5005654;28;20217;-49
2023/05/24 11:18:38;;;;;;;3.22;2.13;;;;;;;;;;5001552;28;20217;-48
2023/05/24 11:21:06;;;;;;;2.92;1.52;;;;;;;;;;4979868;28;20222;-50
2023/05/24 11:23:34;;;;;;;4.88;2.03;;;;;;;;;;5012534;28;20256;-53
2023/05/24 11:26:06;;;;;;;5.05;3.13;;;;;;;;;;4988023;28;20251;-49
2023/05/24 11:28:36;;;;;;;9.70;5.60;;;;;;;;;;5001305;28;20279;-51
2023/05/24 11:31:07;;;;;;;4.65;2.03;;;;;;;;;;5004258;28;20234;-48
2023/05/24 11:33:40;;;;;;;4.68;2.00;;;;;;;;;;4999643;28;20246;-51
2023/05/24 11:36:08;;;;;;;4.93;3.63;;;;;;;;;;4998073;28;20221;-48
2023/05/24 11:38:36;;;;;;;2.92;1.70;;;;;;;;;;4998219;28;20257;-47
2023/05/24 11:41:04;;;;;;;3.53;1.60;;;;;;;;;;4991156;28;20225;-48
2023/05/24 11:43:31;;;;;;;2.60;1.70;;;;;;;;;;5003088;28;20333;-48
2023/05/24 11:45:58;;;;;;;18.83;11.88;;;;;;;;;;4989513;28;20222;-49
2023/05/24 11:48:26;;;;;;;5.40;2.78;;;;;;;;;;5002579;28;20309;-48
2023/05/24 11:50:53;;;;;;;3.20;1.83;;;;;;;;;;5003736;28;20691;-48
2023/05/24 11:53:21;;;;;;;12.30;5.97;;;;;;;;;;5006649;28;20222;-50
2023/05/24 11:55:49;;;;;;;3.63;1.83;;;;;;;;;;5005155;28;20315;-49
2023/05/24 11:58:25;;;;;;;3.75;2.28;;;;;;;;;;4989037;28;20213;-47
2023/05/24 12:00:52;;;;;;;3.25;1.30;;;;;;;;;;4996702;28;20233;-47
2023/05/24 12:03:20;;;;;;;2.58;1.63;;;;;;;;;;4995407;28;20226;-48
2023/05/24 12:05:48;;;;;;;5.60;3.17;;;;;;;;;;4999482;28;20283;-48
2023/05/24 12:08:15;;;;;;;12.13;6.13;;;;;;;;;;5014625;28;20279;-49
2023/05/24 12:10:43;;;;;;;6.75;3.45;;;;;;;;;;4992444;28;20234;-49
2023/05/24 12:13:25;;;;;;;3.55;2.22;;;;;;;;;;4995181;28;20603;-48
2023/05/24 12:15:53;;;;;;;4.60;1.80;;;;;;;;;;4995319;28;20229;-48
2023/05/24 12:18:24;;;;;;;2.40;1.60;;;;;;;;;;4995199;28;20230;-48
2023/05/24 12:20:52;;;;;;;3.83;1.50;;;;;;;;;;4995436;28;20213;-48
2023/05/24 12:23:28;;;;;;;5.68;3.47;;;;;;;;;;4983772;28;20199;-49
2023/05/24 12:25:59;;;;;;;5.75;2.72;;;;;;;;;;4993690;28;20205;-48
2023/05/24 12:28:27;;;;;;;7.50;4.60;;;;;;;;;;4993956;28;20226;-49
2023/05/24 12:30:54;;;;;;;2.55;1.67;;;;;;;;;;4998464;28;20222;-50
2023/05/24 12:33:22;;;;;;;6.05;3.45;;;;;;;;;;5002497;28;20238;-49
2023/05/24 12:35:50;;;;;;;5.32;2.90;;;;;;;;;;4984750;28;20217;-50
2023/05/24 12:38:23;;;;;;;2.58;1.88;;;;;;;;;;4985801;28;20234;-49
2023/05/24 12:40:52;;;;;;;3.65;2.30;;;;;;;;;;5003598;28;20232;-53
2023/05/24 12:43:39;;;;;;;3.65;1.48;;;;;;;;;;4967142;28;20317;-48
2023/05/24 12:46:06;;;;;;;1.75;1.30;;;;;;;;;;4999142;28;20226;-51
2023/05/24 12:48:34;;;;;;;1.88;1.40;;;;;;;;;;5002421;28;20325;-48
2023/05/24 12:51:01;;;;;;;2.75;1.30;;;;;;;;;;5003064;28;20229;-50
2023/05/24 12:53:28;;;;;;;2.42;1.40;;;;;;;;;;5001071;28;20229;-52
2023/05/24 12:55:56;;;;;;;2.33;1.50;;;;;;;;;;4987005;28;20304;-48
2023/05/24 12:58:23;;;;;;;6.38;2.97;;;;;;;;;;4994064;28;20322;-50
2023/05/24 13:00:51;;;;;;;3.83;1.77;;;;;;;;;;4993941;28;20242;-49
2023/05/24 13:03:18;;;;;;;6.15;3.42;;;;;;;;;;4992517;28;20623;-48
2023/05/24 13:05:46;;;;;;;2.17;1.55;;;;;;;;;;4991411;28;20288;-49
2023/05/24 13:08:13;;;;;;;3.53;1.40;;;;;;;;;;4991934;28;20222;-54
2023/05/24 13:10:40;;;;;;;3.53;1.40;;;;;;;;;;4996332;28;20230;-53
2023/05/24 13:13:08;;;;;;;2.42;1.60;;;;;;;;;;4997274;28;20767;-51
2023/05/24 13:15:36;;;;;;;3.35;1.80;;;;;;;;;;4998778;28;20233;-49
2023/05/24 13:18:04;;;;;;;2.40;1.63;;;;;;;;;;5000766;28;20241;-50
2023/05/24 13:20:32;;;;;;;4.35;1.70;;;;;;;;;;4998746;28;20308;-49
2023/05/24 13:22:59;;;;;;;2.72;1.70;;;;;;;;;;5004373;28;20202;-50
2023/05/24 13:25:26;;;;;;;4.80;2.20;;;;;;;;;;4994695;28;20209;-48
2023/05/24 13:27:53;;;;;;;3.78;2.17;;;;;;;;;;4994297;28;20198;-48
2023/05/24 13:30:26;;;;;;;5.35;2.40;;;;;;;;;;4994103;28;20239;-50
2023/05/24 13:32:54;;;;;;;1.70;1.50;;;;;;;;;;4993357;28;20241;-52
2023/05/24 13:35:22;;;;;;;2.35;1.40;;;;;;;;;;4994300;28;20687;-50
2023/05/24 13:37:50;;;;;;;4.32;1.50;;;;;;;;;;4994347;28;20202;-50
2023/05/24 13:40:17;;;;;;;2.13;1.48;;;;;;;;;;4976841;28;20202;-48
2023/05/24 13:42:44;;;;;;;4.40;2.67;;;;;;;;;;4994127;28;20213;-49
2023/05/24 13:45:11;;;;;;;2.95;1.50;;;;;;;;;;4994163;28;20686;-49
2023/05/24 13:47:38;;;;;;;2.95;1.40;;;;;;;;;;4994138;28;20655;-49
2023/05/24 13:50:08;;;;;;;3.72;2.17;;;;;;;;;;4990257;28;20663;-51
2023/05/24 13:52:35;;;;;;;9.90;5.68;;;;;;;;;;4988990;28;20920;-55
2023/05/24 13:55:03;;;;;;;9.60;5.45;;;;;;;;;;5000496;28;20754;-50
2023/05/24 13:57:31;;;;;;;10.98;6.38;;;;;;;;;;5012550;28;20555;-50
2023/05/24 14:00:17;;;;;;;3.20;1.90;;;;;;;;;;4993632;28;20195;-60
2023/05/24 14:02:44;;;;;;;1.92;1.40;;;;;;;;;;4993253;28;20564;-58
2023/05/24 14:05:12;;;;;;;2.22;1.70;;;;;;;;;;4993124;28;20238;-59
2023/05/24 14:07:59;;;;;;;2.67;1.60;;;;;;;;;;4993613;28;20293;-60
2023/05/24 14:10:26;;;;;;;1.58;1.40;;;;;;;;;;4993682;28;20560;-50
2023/05/24 14:12:53;;;;;;;2.30;1.48;;;;;;;;;;4995004;28;20579;-51
2023/05/24 14:15:41;;;;;;;3.22;1.40;;;;;;;;;;4999827;28;20194;-51
2023/05/24 14:18:08;;;;;;;2.10;1.50;;;;;;;;;;4998993;28;20201;-50
2023/05/24 14:20:36;;;;;;;2.17;1.30;;;;;;;;;;4997416;28;20730;-60
2023/05/24 14:23:05;;;;;;;4.80;2.53;;;;;;;;;;5004556;28;20894;-50
2023/05/24 14:25:33;;;;;;;3.13;2.30;;;;;;;;;;4987078;28;20276;-49
2023/05/24 14:28:02;;;;;;;2.85;1.58;;;;;;;;;;5003218;28;20214;-51
2023/05/24 14:30:30;;;;;;;3.72;1.30;;;;;;;;;;5006805;28;20635;-52
2023/05/24 14:32:59;;;;;;;1.95;1.33;;;;;;;;;;4991623;28;20718;-51
2023/05/24 14:35:26;;;;;;;3.22;1.55;;;;;;;;;;4994167;28;20284;-51
2023/05/24 14:37:54;;;;;;;3.10;1.58;;;;;;;;;;5002533;28;20226;-56
2023/05/24 14:40:21;;;;;;;3.40;1.77;;;;;;;;;;5001435;28;20694;-51
2023/05/24 14:42:48;;;;;;;3.33;1.77;;;;;;;;;;5001920;28;20221;-51
2023/05/24 14:45:15;;;;;;;1.50;1.25;;;;;;;;;;5005126;28;20194;-53
2023/05/24 14:47:43;;;;;;;2.28;1.35;;;;;;;;;;5011992;28;20201;-54
2023/05/24 14:50:10;;;;;;;4.53;1.40;;;;;;;;;;5016511;28;20213;-51
2023/05/24 14:52:37;;;;;;;2.53;1.50;;;;;;;;;;5007175;28;20703;-53